Time;durP1;ratioP1;P1;durP2;ratioP2;P2;SDS_P1;SDS_P2;PMS_P1;PMS_P2;Temp;Humidity;BMP_temperature;BMP_pressure;BME280_temperature;BME280_humidity;BME280_pressure;Samples;Min_cycle;Max_cycle;Signal;HPM_P1;HPM_P2
2022/01/22 00:01:10;;;;;;;46.45;24.65;;;;;;;1.15;66.93;99512.16;4995551;28;20029;-61
2022/01/22 00:03:37;;;;;;;47.90;25.30;;;;;;;1.14;66.71;99517.34;5003045;28;20030;-61
2022/01/22 00:06:04;;;;;;;49.55;25.13;;;;;;;1.18;66.85;99518.06;4980565;28;20034;-62
2022/01/22 00:08:29;;;;;;;46.03;25.33;;;;;;;1.15;66.29;99516.47;4984737;28;20049;-62
2022/01/22 00:10:55;;;;;;;44.95;24.33;;;;;;;1.13;66.23;99515.66;4987707;28;20025;-61
2022/01/22 00:15:48;;;;;;;47.45;24.92;;;;;;;1.12;66.19;99521.72;4993705;28;20100;-61
2022/01/22 00:18:14;;;;;;;45.65;24.42;;;;;;;0.99;66.42;99515.44;5004465;28;20037;-61
2022/01/22 00:20:39;;;;;;;44.97;25.67;;;;;;;1.06;66.61;99521.94;5001072;28;20444;-64
2022/01/22 00:23:05;;;;;;;54.25;27.65;;;;;;;1.02;67.13;99515.28;4928957;28;20040;-62
2022/01/22 00:25:31;;;;;;;53.55;28.30;;;;;;;1.14;66.45;99522.47;4995961;28;20034;-63
2022/01/22 00:27:56;;;;;;;51.08;26.35;;;;;;;0.83;66.16;99469.94;4999735;28;20041;-61
2022/01/22 00:30:24;;;;;;;56.17;26.58;;;;;;;0.57;67.52;99450.53;4986279;28;20044;-61
2022/01/22 00:32:50;;;;;;;46.80;25.33;;;;;;;0.61;68.00;99508.38;4986570;28;20030;-62
2022/01/22 00:35:17;;;;;;;48.70;24.20;;;;;;;0.82;67.91;99514.38;4987391;28;20429;-61
2022/01/22 00:37:44;;;;;;;45.65;24.45;;;;;;;0.55;68.13;99468.50;4985456;28;20036;-61
2022/01/22 00:40:11;;;;;;;48.10;25.48;;;;;;;0.73;67.73;99502.75;4984912;28;20481;-61
2022/01/22 00:42:38;;;;;;;51.25;25.48;;;;;;;0.88;67.60;99506.44;4947282;28;20690;-61
2022/01/22 00:45:04;;;;;;;47.80;25.23;;;;;;;0.89;66.98;99513.22;4983376;28;20022;-63
2022/01/22 00:47:30;;;;;;;48.10;24.88;;;;;;;0.95;67.46;99510.41;4987884;28;20068;-62
2022/01/22 00:49:55;;;;;;;47.08;25.30;;;;;;;0.68;68.15;99507.22;5002398;28;20030;-61
2022/01/22 00:52:21;;;;;;;49.53;25.85;;;;;;;0.61;68.43;99515.22;4987790;28;20536;-61
2022/01/22 00:54:46;;;;;;;50.00;25.63;;;;;;;0.46;68.08;99483.38;4996056;28;20036;-61
2022/01/22 00:57:12;;;;;;;47.92;25.35;;;;;;;0.64;68.55;99500.56;5001047;28;21378;-63
2022/01/22 00:59:38;;;;;;;44.33;25.15;;;;;;;0.74;68.63;99509.53;5002717;28;20041;-60
2022/01/22 01:02:04;;;;;;;46.35;25.00;;;;;;;0.49;68.43;99489.22;4998372;28;20041;-63
2022/01/22 01:04:33;;;;;;;44.70;23.27;;;;;;;0.60;68.15;99506.69;4983838;28;20413;-59
2022/01/22 01:06:59;;;;;;;46.83;23.58;;;;;;;0.71;68.48;99511.38;4998137;28;20163;-63
2022/01/22 01:09:24;;;;;;;48.65;24.52;;;;;;;0.66;67.86;99508.19;5001651;28;20362;-62
2022/01/22 01:11:55;;;;;;;45.72;23.83;;;;;;;0.38;68.83;99463.19;4983122;28;20680;-61
2022/01/22 01:14:28;;;;;;;50.22;25.30;;;;;;;0.64;68.74;99509.97;4993970;28;20068;-63
2022/01/22 01:33:21;;;;;;;53.08;27.23;;;;;;;0.44;69.30;99520.97;5005408;28;20044;-60
2022/01/22 01:35:47;;;;;;;50.72;26.70;;;;;;;0.56;69.03;99534.13;5003645;28;20029;-61
2022/01/22 01:38:13;;;;;;;49.97;25.55;;;;;;;0.13;69.45;99525.53;4999841;28;20029;-60
2022/01/22 01:40:42;;;;;;;49.15;24.73;;;;;;;0.00;70.56;99514.09;4983557;28;20033;-61
2022/01/22 01:43:32;;;;;;;45.30;23.20;;;;;;;0.19;70.73;99525.28;5005812;28;20192;-59
2022/01/22 01:45:57;;;;;;;45.00;23.00;;;;;;;-0.06;70.11;99497.22;4984929;28;20600;-63
2022/01/22 01:48:27;;;;;;;45.80;22.58;;;;;;;0.17;70.88;99541.59;5016587;28;20026;-61
2022/01/22 01:50:54;;;;;;;39.05;21.42;;;;;;;0.21;69.93;99532.91;4995226;28;21101;-64
2022/01/22 01:53:44;;;;;;;41.20;21.90;;;;;;;0.04;70.65;99535.22;5003009;28;20025;-60
2022/01/22 01:58:55;;;;;;;45.58;21.50;;;;;;;0.11;70.67;99544.34;4997548;28;20046;-61
2022/01/22 02:01:21;;;;;;;43.10;23.45;;;;;;;0.22;70.31;99526.91;4984712;28;20040;-62
2022/01/22 02:03:46;;;;;;;46.83;23.92;;;;;;;0.13;70.33;99534.94;5002164;28;20084;-63
2022/01/22 02:06:12;;;;;;;42.25;23.13;;;;;;;0.13;70.38;99529.81;4940130;28;20029;-59
2022/01/22 02:08:39;;;;;;;41.15;22.05;;;;;;;0.28;69.61;99523.28;4985918;28;20072;-60
2022/01/22 02:11:05;;;;;;;45.03;23.00;;;;;;;0.31;70.05;99513.78;4997217;28;20026;-60
2022/01/22 02:24:18;;;;;;;50.05;22.77;;;;;;;0.03;70.86;99508.00;4988974;28;20393;-59
2022/01/22 02:26:48;;;;;;;45.20;22.02;;;;;;;-0.01;71.11;99492.78;4957296;28;20030;-63
2022/01/22 02:29:14;;;;;;;39.90;21.90;;;;;;;0.13;71.31;99501.69;4981878;28;20091;-60
2022/01/22 02:31:54;;;;;;;44.88;22.65;;;;;;;0.10;70.49;99502.59;4992571;28;20030;-60
2022/01/22 02:34:33;;;;;;;43.40;22.48;;;;;;;-0.20;70.57;99448.34;4997130;28;20064;-61
2022/01/22 02:37:04;;;;;;;43.92;20.95;;;;;;;-0.16;71.81;99487.41;4998972;28;20030;-63
2022/01/22 02:39:44;;;;;;;38.78;20.92;;;;;;;0.05;70.84;99494.25;4998680;28;20101;-61
2022/01/22 02:42:09;;;;;;;42.70;21.73;;;;;;;-0.15;70.84;99484.75;4998137;28;20037;-61
2022/01/22 02:44:43;;;;;;;39.30;21.45;;;;;;;-0.37;71.51;99454.03;4987078;28;20033;-63
2022/01/22 02:47:09;;;;;;;37.95;20.30;;;;;;;-0.03;70.70;99486.06;4949327;28;20029;-63
2022/01/22 02:49:35;;;;;;;51.15;26.58;;;;;;;-0.13;70.64;99485.53;4989015;28;20021;-62
2022/01/22 02:52:05;;;;;;;49.60;25.50;;;;;;;-0.12;70.96;99496.63;5003521;28;20017;-61
2022/01/22 02:54:30;;;;;;;46.17;23.35;;;;;;;-0.18;71.04;99469.56;4988451;28;20084;-61
2022/01/22 02:56:56;;;;;;;53.08;24.30;;;;;;;-0.33;72.24;99491.41;5000108;28;20033;-61
2022/01/22 02:59:23;;;;;;;41.78;22.02;;;;;;;-0.21;71.90;99490.94;5001998;28;20039;-61
2022/01/22 03:01:49;;;;;;;40.90;21.55;;;;;;;-0.08;71.42;99493.88;4985923;28;20037;-61
2022/01/22 03:04:15;;;;;;;42.80;22.10;;;;;;;-0.39;71.92;99430.25;5005526;28;20487;-60
2022/01/22 03:06:40;;;;;;;45.85;22.23;;;;;;;-0.12;71.59;99486.41;4926328;28;20034;-62
2022/01/22 03:09:09;;;;;;;49.10;23.70;;;;;;;-0.20;71.53;99497.72;4997156;28;20030;-62
2022/01/22 03:11:43;;;;;;;49.85;23.02;;;;;;;-0.24;72.14;99501.28;4999320;28;20040;-62
2022/01/22 03:17:24;;;;;;;40.22;20.45;;;;;;;-0.25;72.36;99484.28;5004198;28;20087;-61
2022/01/22 03:27:42;;;;;;;39.25;20.95;;;;;;;-0.28;72.58;99481.81;4986108;28;20079;-60
2022/01/22 03:30:08;;;;;;;39.35;21.73;;;;;;;-0.49;72.55;99470.66;5005765;28;20830;-60
2022/01/22 03:32:46;;;;;;;41.00;21.25;;;;;;;-0.29;72.24;99495.50;5004607;28;20167;-63
2022/01/22 03:37:44;;;;;;;38.88;21.08;;;;;;;-0.40;72.82;99478.00;5006082;28;20080;-61
2022/01/22 03:40:12;;;;;;;40.15;21.35;;;;;;;-0.34;72.73;99474.38;4982858;28;20329;-61
2022/01/22 03:42:38;;;;;;;39.70;21.63;;;;;;;-0.33;74.08;99470.94;5004503;28;20776;-61
2022/01/22 03:45:07;;;;;;;44.00;22.25;;;;;;;-0.38;73.76;99457.50;5001468;28;20092;-60
2022/01/22 03:47:32;;;;;;;38.28;21.45;;;;;;;-0.45;73.38;99466.28;4945092;28;20105;-61
2022/01/22 03:49:58;;;;;;;39.40;21.05;;;;;;;-0.43;73.16;99454.28;4998756;28;20121;-62
2022/01/22 03:52:23;;;;;;;40.53;22.05;;;;;;;-0.28;73.57;99460.53;5004097;28;20037;-61
2022/01/22 03:54:48;;;;;;;36.33;19.42;;;;;;;-0.26;73.19;99454.47;4987149;28;20030;-61
2022/01/22 03:57:14;;;;;;;39.42;20.88;;;;;;;-0.35;72.85;99454.81;4988699;28;20032;-63
2022/01/22 03:59:40;;;;;;;41.47;19.75;;;;;;;-0.61;72.94;99391.88;5000760;28;20030;-60
2022/01/22 04:02:39;;;;;;;41.55;21.25;;;;;;;-0.40;73.27;99433.72;5004476;28;20044;-63
2022/01/22 04:04:55;;;;;;;43.40;21.48;;;;;;;-0.28;73.82;99438.38;5002028;28;20041;-60
2022/01/22 04:09:55;;;;;;;38.05;19.95;;;;;;;-0.39;74.46;99435.38;5004784;28;20034;-62
2022/01/22 04:12:29;;;;;;;40.83;20.83;;;;;;;-0.30;74.40;99424.81;5004357;28;20032;-60
2022/01/22 04:15:00;;;;;;;44.00;21.45;;;;;;;-0.50;75.24;99387.22;5001143;28;20061;-61
2022/01/22 04:25:49;;;;;;;47.00;22.60;;;;;;;-0.22;75.39;99427.09;4983211;28;20092;-60
2022/01/22 04:28:14;;;;;;;44.88;22.25;;;;;;;-0.12;74.73;99440.38;4993625;28;20045;-60
2022/01/22 04:30:40;;;;;;;41.15;21.83;;;;;;;-0.13;74.98;99431.84;4990763;28;20037;-60
2022/01/22 04:33:05;;;;;;;41.35;21.67;;;;;;;-0.18;74.78;99435.47;5003826;28;20770;-61
2022/01/22 04:35:32;;;;;;;43.40;22.05;;;;;;;-0.14;74.80;99443.00;5004544;28;20551;-62
2022/01/22 04:37:58;;;;;;;43.53;22.02;;;;;;;-0.18;73.88;99438.88;4986735;28;20130;-61
2022/01/22 04:40:24;;;;;;;43.28;23.13;;;;;;;-0.13;73.99;99451.47;4986852;28;20034;-62
2022/01/22 04:42:49;;;;;;;45.05;22.67;;;;;;;-0.41;73.54;99402.22;4999135;28;20099;-61
2022/01/22 04:55:34;;;;;;;40.63;20.92;;;;;;;-0.71;73.87;99401.59;4996246;28;20049;-61
2022/01/22 04:58:03;;;;;;;38.40;22.02;;;;;;;-0.35;73.38;99436.09;4988018;28;20040;-60
2022/01/22 05:00:31;;;;;;;46.35;22.42;;;;;;;-0.87;74.47;99428.56;5001273;28;20370;-64
2022/01/22 05:02:57;;;;;;;42.50;22.70;;;;;;;-0.62;74.90;99434.50;4998899;28;20560;-62
2022/01/22 05:05:22;;;;;;;44.75;23.58;;;;;;;-0.62;75.16;99428.53;4983115;28;20023;-60
2022/01/22 05:07:48;;;;;;;43.58;22.30;;;;;;;-0.44;74.63;99427.91;4949584;28;20041;-60
2022/01/22 05:10:13;;;;;;;36.78;20.75;;;;;;;-0.74;75.08;99439.19;5001036;28;20092;-63
2022/01/22 05:12:38;;;;;;;37.55;19.73;;;;;;;-0.72;74.97;99443.34;5001026;28;20441;-62
2022/01/22 05:15:05;;;;;;;36.92;18.92;;;;;;;-0.53;74.55;99447.81;5001739;28;20037;-60
2022/01/22 05:17:35;;;;;;;34.33;19.55;;;;;;;-0.53;73.69;99438.44;5003911;28;20057;-59
2022/01/22 05:20:08;;;;;;;33.90;18.17;;;;;;;-0.65;74.64;99436.31;4995386;28;20824;-61
2022/01/22 05:23:22;;;;;;;35.90;19.23;;;;;;;-0.61;74.31;99440.41;5002852;28;20029;-60
2022/01/22 05:25:23;;;;;;;31.75;17.75;;;;;;;-0.61;73.78;99448.09;5005214;28;20571;-61
2022/01/22 05:38:27;;;;;;;37.88;17.73;;;;;;;-1.10;75.24;99447.19;5002316;28;20216;-61
2022/01/22 05:40:52;;;;;;;33.00;16.88;;;;;;;-1.29;76.54;99458.00;4981359;28;20049;-61
2022/01/22 05:43:17;;;;;;;34.20;17.77;;;;;;;-1.21;76.75;99456.03;4998609;28;20389;-60
2022/01/22 05:45:43;;;;;;;33.38;17.77;;;;;;;-1.17;76.57;99449.13;4982685;28;20045;-61
2022/01/22 05:48:08;;;;;;;35.33;17.42;;;;;;;-0.96;76.22;99442.47;4955604;28;20041;-63
2022/01/22 05:50:54;;;;;;;35.95;18.25;;;;;;;-1.19;76.31;99398.16;4982100;28;20041;-59
2022/01/22 06:01:15;;;;;;;37.55;18.27;;;;;;;-1.26;76.75;99378.81;5008144;28;20042;-62
2022/01/22 06:03:41;;;;;;;34.95;18.70;;;;;;;-0.99;76.22;99445.97;4998432;28;20603;-61
2022/01/22 06:06:08;;;;;;;35.10;17.73;;;;;;;-0.98;75.42;99444.25;4984986;28;20030;-62
2022/01/22 06:08:39;;;;;;;32.40;17.45;;;;;;;-0.90;76.20;99436.31;4948664;28;20046;-63
2022/01/22 06:11:09;;;;;;;38.63;18.65;;;;;;;-0.81;75.91;99425.78;4985716;28;20108;-63
2022/01/22 06:13:44;;;;;;;;;;;;;;;-0.71;76.15;99434.81;5000943;28;20022;-61
2022/01/22 06:16:17;;;;;;;30.95;16.38;;;;;;;-0.81;76.12;99438.56;4984317;28;19913;-62
2022/01/22 06:18:43;;;;;;;37.15;18.30;;;;;;;-0.89;76.88;99423.50;5003417;28;20555;-61
2022/01/22 06:21:09;;;;;;;29.58;16.90;;;;;;;-1.00;76.98;99431.53;5003051;28;20038;-63
2022/01/22 06:23:35;;;;;;;35.50;18.15;;;;;;;-0.91;75.81;99429.53;4984822;28;20014;-61
2022/01/22 06:26:00;;;;;;;31.02;17.45;;;;;;;-0.72;75.10;99432.31;5005497;28;20038;-63
2022/01/22 06:28:27;;;;;;;34.17;17.42;;;;;;;-0.92;75.77;99407.47;4977930;28;20260;-62
2022/01/22 06:30:52;;;;;;;34.65;17.88;;;;;;;-0.80;76.67;99450.47;4977001;28;20741;-61
2022/01/22 06:33:18;;;;;;;32.50;17.50;;;;;;;-0.78;76.29;99458.91;5005615;28;20033;-63
2022/01/22 06:35:43;;;;;;;34.92;17.55;;;;;;;-0.70;75.85;99467.13;5007260;28;20097;-60
2022/01/22 06:38:09;;;;;;;35.03;17.63;;;;;;;-0.72;75.28;99450.19;4987487;28;20053;-61
2022/01/22 06:43:00;;;;;;;31.13;16.60;;;;;;;-0.83;75.48;99445.44;5006182;28;20046;-59
2022/01/22 06:45:26;;;;;;;34.22;18.08;;;;;;;-0.85;74.51;99452.31;4982725;28;20030;-60
2022/01/22 06:47:51;;;;;;;35.10;17.98;;;;;;;-0.93;75.60;99456.84;4986373;28;20477;-61
2022/01/22 06:50:18;;;;;;;33.10;17.30;;;;;;;-0.83;74.84;99473.53;4946171;28;20026;-60
2022/01/22 06:52:44;;;;;;;33.88;17.67;;;;;;;-0.74;75.24;99446.84;5007229;28;20041;-60
2022/01/22 06:55:12;;;;;;;31.85;16.92;;;;;;;-1.11;76.38;99446.38;5000420;28;20026;-61
2022/01/22 06:57:37;;;;;;;35.08;18.13;;;;;;;-1.44;76.53;99431.28;5005122;28;20080;-61
2022/01/22 07:00:04;;;;;;;32.53;17.42;;;;;;;-1.44;77.36;99455.94;5002645;28;20465;-61
2022/01/22 07:02:30;;;;;;;35.95;17.75;;;;;;;-1.19;77.24;99453.44;4981208;28;20023;-60
2022/01/22 07:04:55;;;;;;;33.95;17.75;;;;;;;-1.56;77.22;99383.19;4996105;28;20072;-57
2022/01/22 07:07:21;;;;;;;37.13;17.88;;;;;;;-1.01;76.41;99444.34;5002630;28;20034;-60
2022/01/22 07:09:46;;;;;;;32.30;17.55;;;;;;;-1.15;76.93;99447.38;4989299;28;20995;-60
2022/01/22 07:12:12;;;;;;;33.65;17.58;;;;;;;-1.19;77.63;99438.97;4995911;28;20037;-61
2022/01/22 07:14:38;;;;;;;39.15;18.50;;;;;;;-1.04;78.06;99412.09;4994649;28;20048;-62
2022/01/22 07:17:03;;;;;;;36.28;17.90;;;;;;;-1.03;78.88;99439.28;4993176;28;20037;-62
2022/01/22 07:19:37;;;;;;;39.33;18.52;;;;;;;-1.54;80.61;99381.44;5014722;28;20322;-61
2022/01/22 07:22:08;;;;;;;35.10;19.70;;;;;;;-0.98;83.67;99444.25;4997268;28;20117;-64
2022/01/22 07:24:37;;;;;;;35.60;18.38;;;;;;;-0.82;82.85;99419.88;4980650;28;20042;-61
2022/01/22 07:27:04;;;;;;;41.58;20.77;;;;;;;-0.70;83.82;99427.97;4992144;28;20121;-64
2022/01/22 07:29:29;;;;;;;37.45;18.42;;;;;;;-0.69;84.01;99425.38;4966366;28;20049;-61
2022/01/22 07:31:55;;;;;;;37.72;20.25;;;;;;;-0.67;85.23;99408.25;4992342;28;20867;-61
2022/01/22 07:34:20;;;;;;;40.22;20.42;;;;;;;-0.53;86.45;99404.38;4990638;28;20509;-61
2022/01/22 07:36:46;;;;;;;36.78;19.80;;;;;;;-0.44;86.25;99394.69;4979464;28;20026;-62
2022/01/22 07:39:11;;;;;;;43.50;21.58;;;;;;;-0.21;85.79;99418.53;4981452;28;20037;-61
2022/01/22 07:41:37;;;;;;;44.25;22.52;;;;;;;-0.48;84.87;99336.88;4996942;28;20038;-64
2022/01/22 07:44:03;;;;;;;45.30;22.05;;;;;;;-0.44;84.80;99347.81;4986101;28;20034;-62
2022/01/22 07:46:29;;;;;;;46.35;21.50;;;;;;;-0.06;85.42;99389.00;4997658;28;20030;-61
2022/01/22 07:48:54;;;;;;;47.35;24.23;;;;;;;-0.04;85.10;99394.88;5004628;28;20030;-60
2022/01/22 07:51:20;;;;;;;50.40;25.13;;;;;;;0.03;84.83;99387.81;4984911;28;20042;-60
2022/01/22 07:53:46;;;;;;;46.17;24.60;;;;;;;0.04;85.81;99384.34;5001950;28;20068;-62
2022/01/22 07:56:12;;;;;;;48.80;23.20;;;;;;;0.03;85.20;99377.59;5001572;28;20037;-61
2022/01/22 07:58:38;;;;;;;43.20;23.42;;;;;;;0.11;84.47;99365.31;5005576;28;20049;-63
2022/01/22 08:01:03;;;;;;;44.72;22.15;;;;;;;0.17;84.48;99365.09;4997087;28;20046;-62
2022/01/22 08:03:29;;;;;;;44.08;22.67;;;;;;;0.20;84.54;99370.06;4985475;28;20034;-63
2022/01/22 08:05:55;;;;;;;46.67;23.45;;;;;;;0.21;84.46;99373.50;4983019;28;20745;-63
2022/01/22 08:08:20;;;;;;;47.72;23.45;;;;;;;0.23;84.60;99371.69;4996098;28;20034;-61
2022/01/22 08:10:45;;;;;;;46.78;24.10;;;;;;;-0.18;84.60;99303.41;5001026;28;20504;-61
2022/01/22 08:13:11;;;;;;;46.05;24.08;;;;;;;0.25;84.98;99359.69;4936779;28;20470;-62
2022/01/22 08:15:36;;;;;;;48.10;24.67;;;;;;;0.30;84.49;99360.34;4997978;28;20038;-63
2022/01/22 08:18:04;;;;;;;46.45;22.58;;;;;;;0.36;84.44;99366.00;4987666;28;20171;-60
2022/01/22 08:20:29;;;;;;;46.83;23.40;;;;;;;0.44;84.06;99373.41;4976411;28;20037;-62
2022/01/22 08:22:55;;;;;;;46.78;23.73;;;;;;;0.45;85.13;99352.03;4983075;28;20034;-64
2022/01/22 08:25:20;;;;;;;51.35;24.52;;;;;;;0.40;84.63;99363.34;4993656;28;20548;-62
2022/01/22 08:30:20;;;;;;;46.22;22.45;;;;;;;0.53;84.25;99360.22;4997369;28;20104;-63
2022/01/22 08:33:06;;;;;;;46.08;24.52;;;;;;;0.53;83.38;99355.13;4944999;28;20921;-64
2022/01/22 08:38:15;;;;;;;52.75;23.55;;;;;;;0.54;83.22;99366.16;4996077;28;20152;-60
2022/01/22 08:40:40;;;;;;;51.53;25.02;;;;;;;0.25;82.76;99318.75;4981516;28;20544;-61
2022/01/22 08:43:06;;;;;;;47.17;24.70;;;;;;;0.52;82.36;99371.34;4990072;28;20488;-62
2022/01/22 08:45:31;;;;;;;42.42;22.45;;;;;;;0.54;82.11;99366.16;4977603;28;20037;-62
2022/01/22 08:47:56;;;;;;;46.25;24.95;;;;;;;0.44;81.93;99342.69;4987085;28;22293;-63
2022/01/22 08:50:23;;;;;;;44.80;22.55;;;;;;;0.56;81.83;99364.38;4977919;28;20077;-60
2022/01/22 08:52:50;;;;;;;47.05;23.65;;;;;;;0.60;81.75;99360.78;4971712;28;20175;-64
2022/01/22 08:55:16;;;;;;;46.80;23.88;;;;;;;0.69;80.46;99364.69;4961799;28;20525;-63
2022/01/22 08:57:41;;;;;;;48.90;23.85;;;;;;;0.80;79.41;99374.50;4977112;28;20038;-60
2022/01/22 09:00:08;;;;;;;44.17;22.52;;;;;;;0.74;78.52;99373.84;4977320;28;20066;-61
2022/01/22 09:02:35;;;;;;;46.00;24.50;;;;;;;0.87;78.06;99373.34;4977900;28;20862;-60
2022/01/22 09:05:01;;;;;;;47.28;22.35;;;;;;;0.82;78.16;99365.88;4983069;28;20034;-62
2022/01/22 09:07:26;;;;;;;50.13;25.02;;;;;;;0.85;78.23;99380.25;4986634;28;20096;-64
2022/01/22 09:09:52;;;;;;;42.83;22.77;;;;;;;0.86;77.71;99367.41;4991587;28;20481;-61
2022/01/22 09:12:18;;;;;;;42.92;22.88;;;;;;;0.96;78.29;99372.94;4988483;28;20033;-60
2022/01/22 09:14:44;;;;;;;43.67;23.25;;;;;;;1.17;77.55;99378.03;4975111;28;20080;-60
2022/01/22 09:17:09;;;;;;;43.20;21.75;;;;;;;1.09;76.99;99374.09;4986799;28;20420;-64
2022/01/22 09:19:35;;;;;;;45.95;23.65;;;;;;;1.08;76.71;99363.94;4974446;28;20034;-62
2022/01/22 09:22:06;;;;;;;45.97;22.77;;;;;;;0.77;76.61;99314.84;4988579;28;20121;-62
2022/01/22 09:24:31;;;;;;;35.33;17.85;;;;;;;1.27;75.88;99366.50;4970149;28;20066;-61
2022/01/22 09:26:59;;;;;;;41.58;21.98;;;;;;;1.30;75.77;99366.38;4986866;28;20839;-60
2022/01/22 09:29:25;;;;;;;43.22;21.02;;;;;;;1.31;75.58;99366.31;4989464;28;20061;-61
2022/01/22 09:31:51;;;;;;;45.30;22.80;;;;;;;1.42;75.20;99352.19;4975614;28;20442;-63
2022/01/22 09:34:16;;;;;;;43.28;20.58;;;;;;;1.53;74.90;99365.34;4989504;28;20038;-62
2022/01/22 09:36:42;;;;;;;40.17;21.65;;;;;;;1.60;74.12;99369.28;4979522;28;20053;-61
2022/01/22 09:39:07;;;;;;;37.85;20.08;;;;;;;1.63;74.40;99356.34;4989397;28;20168;-61
2022/01/22 09:41:32;;;;;;;41.28;21.38;;;;;;;1.75;74.20;99367.75;4997861;28;20125;-62
2022/01/22 09:43:58;;;;;;;43.92;22.17;;;;;;;1.77;73.87;99368.53;4984261;28;20045;-62
2022/01/22 09:46:26;;;;;;;42.78;21.02;;;;;;;1.86;73.63;99386.06;4992315;28;20053;-61
2022/01/22 09:48:53;;;;;;;37.97;20.17;;;;;;;1.84;72.39;99346.00;4996719;28;20058;-63
2022/01/22 09:51:19;;;;;;;39.40;20.13;;;;;;;1.95;71.91;99364.25;4980391;28;20492;-62
2022/01/22 09:53:46;;;;;;;37.78;20.17;;;;;;;2.14;71.56;99371.13;4987013;28;20029;-61
2022/01/22 09:56:12;;;;;;;41.53;21.00;;;;;;;2.08;72.30;99357.69;4984842;28;20038;-63
2022/01/22 09:58:37;;;;;;;38.88;20.73;;;;;;;2.07;72.64;99339.78;4997719;28;20049;-60
2022/01/22 10:01:31;;;;;;;39.25;21.00;;;;;;;1.92;71.97;99315.69;4994460;28;20279;-61
2022/01/22 10:03:59;;;;;;;38.75;20.17;;;;;;;2.28;72.76;99367.00;4971297;28;20117;-61
2022/01/22 10:06:29;;;;;;;36.58;20.35;;;;;;;2.30;72.19;99375.44;4997372;28;20030;-62
2022/01/22 10:09:05;;;;;;;39.95;20.77;;;;;;;2.40;71.76;99368.13;4988644;28;20111;-63
2022/01/22 10:11:31;;;;;;;39.42;19.90;;;;;;;2.47;70.71;99379.75;4987523;28;20033;-62
2022/01/22 10:13:59;;;;;;;36.85;19.60;;;;;;;2.47;70.48;99379.75;4988900;28;20107;-62
2022/01/22 10:16:27;;;;;;;37.22;19.23;;;;;;;2.55;70.25;99375.97;5001207;28;20026;-62
2022/01/22 10:19:17;;;;;;;36.00;18.98;;;;;;;2.38;68.32;99320.34;4988531;28;20041;-60
2022/01/22 10:21:58;;;;;;;35.65;19.95;;;;;;;2.77;68.52;99384.28;4994247;28;21398;-60
2022/01/22 10:24:41;;;;;;;36.40;19.17;;;;;;;2.81;68.22;99375.53;4993473;28;20030;-62
2022/01/22 10:27:33;;;;;;;35.63;18.73;;;;;;;2.78;68.61;99385.94;4985235;28;20030;-61
2022/01/22 10:30:03;;;;;;;35.58;18.88;;;;;;;2.46;68.50;99331.03;4998886;28;20042;-61
2022/01/22 10:35:18;;;;;;;34.03;17.95;;;;;;;2.98;65.87;99379.81;4991916;28;20041;-61
2022/01/22 10:37:44;;;;;;;32.58;18.23;;;;;;;2.92;66.09;99361.28;4993658;28;20151;-61
2022/01/22 10:40:27;;;;;;;33.03;18.45;;;;;;;3.04;65.95;99391.50;4984595;28;20030;-63
2022/01/22 10:43:21;;;;;;;34.95;18.02;;;;;;;3.04;65.60;99376.91;4997141;28;20076;-61
2022/01/22 10:46:32;;;;;;;34.15;18.05;;;;;;;3.00;66.15;99370.28;4995304;28;20673;-61
2022/01/22 10:49:06;;;;;;;31.80;17.40;;;;;;;3.01;66.71;99368.53;4995880;28;20057;-62
2022/01/22 10:51:51;;;;;;;32.30;17.63;;;;;;;3.10;65.93;99383.47;4994699;28;20034;-61
2022/01/22 10:54:22;;;;;;;32.85;19.58;;;;;;;3.23;65.63;99375.97;4999219;28;20388;-63
2022/01/22 10:56:49;;;;;;;35.20;18.83;;;;;;;3.18;65.64;99360.81;4982494;28;20034;-61
2022/01/22 10:59:19;;;;;;;31.45;17.27;;;;;;;3.00;65.78;99329.19;4990214;28;20029;-60
2022/01/22 11:01:56;;;;;;;33.35;18.15;;;;;;;3.00;65.68;99321.47;4995229;28;20045;-61
2022/01/22 11:04:27;;;;;;;35.15;19.00;;;;;;;3.28;65.48;99381.72;4995052;28;20033;-60
2022/01/22 11:07:07;;;;;;;33.47;19.45;;;;;;;3.24;65.71;99373.31;4966581;28;20572;-61
2022/01/22 11:09:34;;;;;;;36.83;18.05;;;;;;;3.27;65.78;99356.94;4985980;28;20111;-61
2022/01/22 11:12:01;;;;;;;34.60;18.02;;;;;;;3.32;64.81;99348.97;4995318;28;20097;-60
2022/01/22 11:14:28;;;;;;;35.55;17.75;;;;;;;3.44;63.84;99346.56;4977179;28;20033;-61
2022/01/22 11:16:54;;;;;;;31.42;17.23;;;;;;;3.26;63.54;99294.38;4999051;28;20572;-60
2022/01/22 11:19:22;;;;;;;31.52;17.92;;;;;;;3.32;62.88;99294.97;4987818;28;20031;-61
2022/01/22 11:21:52;;;;;;;33.20;17.95;;;;;;;3.68;62.86;99335.88;5032826;28;20037;-60
2022/01/22 11:24:22;;;;;;;;;;;;;;;3.68;63.28;99324.78;4988398;28;20032;-61
2022/01/22 11:26:53;;;;;;;34.97;17.85;;;;;;;3.62;63.72;99334.47;5011707;28;19917;-60
2022/01/22 11:29:21;;;;;;;36.70;20.00;;;;;;;3.80;63.73;99326.69;4986996;28;20145;-60
2022/01/22 11:31:47;;;;;;;34.15;18.73;;;;;;;3.84;63.44;99326.41;5003329;28;20940;-61
2022/01/22 11:34:15;;;;;;;37.35;19.38;;;;;;;3.90;63.43;99306.41;4998789;28;20040;-61
2022/01/22 11:37:10;;;;;;;35.30;18.30;;;;;;;4.19;63.99;99320.22;4997053;28;20141;-61
2022/01/22 11:39:36;;;;;;;36.60;19.55;;;;;;;4.29;63.47;99305.91;5001676;28;20065;-60
2022/01/22 11:42:03;;;;;;;34.13;18.58;;;;;;;4.29;63.40;99297.34;4995545;28;20034;-60
2022/01/22 11:44:50;;;;;;;36.05;20.92;;;;;;;4.26;64.04;99294.97;4979252;28;20038;-61
2022/01/22 11:47:18;;;;;;;36.33;21.10;;;;;;;4.26;64.04;99295.78;4984993;28;20038;-62
2022/01/22 11:50:21;;;;;;;42.63;21.70;;;;;;;4.02;64.23;99238.81;4994793;28;20022;-61
2022/01/22 11:52:47;;;;;;;40.70;21.90;;;;;;;4.31;64.31;99283.47;4999184;28;20033;-61
2022/01/22 11:55:14;;;;;;;39.92;22.88;;;;;;;4.45;64.76;99274.13;5006378;28;20033;-61
2022/01/22 11:57:42;;;;;;;41.53;23.42;;;;;;;4.55;64.86;99282.97;4987589;28;20092;-62
2022/01/22 12:00:25;;;;;;;40.25;21.65;;;;;;;4.59;66.30;99272.38;5001891;28;20126;-60
2022/01/22 12:03:03;;;;;;;40.75;22.40;;;;;;;4.55;66.25;99258.03;5000578;28;20472;-62
2022/01/22 12:05:29;;;;;;;37.28;20.75;;;;;;;4.66;66.51;99243.72;4994299;28;20137;-64
2022/01/22 12:07:59;;;;;;;39.03;21.95;;;;;;;4.92;65.50;99262.75;4978210;28;20023;-62
2022/01/22 12:14:25;;;;;;;;;;;;;;;5.15;64.63;99269.09;4995547;28;20366;-61
2022/01/22 12:16:38;;;;;;;36.92;21.88;;;;;;;5.23;64.93;99250.56;4986565;28;20053;-61
2022/01/22 12:19:04;;;;;;;39.78;21.55;;;;;;;5.23;64.77;99246.22;4997733;28;20072;-61
2022/01/22 12:21:34;;;;;;;40.85;24.33;;;;;;;5.26;65.42;99232.31;5002156;28;20322;-61
2022/01/22 12:24:02;;;;;;;39.00;22.27;;;;;;;5.30;65.34;99231.19;5003273;28;20064;-62
2022/01/22 12:26:57;;;;;;;38.42;21.75;;;;;;;5.39;65.99;99230.63;4982996;28;20030;-61
2022/01/22 12:29:28;;;;;;;39.85;22.20;;;;;;;5.41;64.85;99243.44;4998835;28;20877;-65
2022/01/22 12:32:17;;;;;;;39.95;23.25;;;;;;;5.45;65.60;99229.41;4985602;28;20038;-65
2022/01/22 12:34:59;;;;;;;39.87;22.90;;;;;;;5.44;66.25;99232.91;5001951;28;20431;-65
2022/01/22 12:37:25;;;;;;;39.42;22.58;;;;;;;5.46;63.80;99226.75;4985014;28;20403;-65
2022/01/22 12:39:54;;;;;;;43.38;22.73;;;;;;;5.39;64.32;99217.72;5001053;28;20038;-65
2022/01/22 12:42:31;;;;;;;39.33;22.25;;;;;;;5.55;65.36;99218.41;4981245;28;20026;-64
2022/01/22 12:45:02;;;;;;;38.30;23.13;;;;;;;5.71;61.88;99228.59;4991689;28;20129;-65
2022/01/22 12:47:28;;;;;;;41.67;23.48;;;;;;;5.56;62.06;99186.50;4986079;28;20030;-65
2022/01/22 12:50:03;;;;;;;40.30;23.73;;;;;;;5.44;63.08;99164.09;4989131;28;20086;-65
2022/01/22 12:52:29;;;;;;;45.22;24.63;;;;;;;5.78;61.33;99210.94;5003195;28;20026;-65
2022/01/22 12:54:58;;;;;;;41.72;23.48;;;;;;;5.77;62.07;99191.22;4984258;28;20030;-64
2022/01/22 12:57:25;;;;;;;43.05;24.92;;;;;;;5.91;62.42;99198.91;4987817;28;20030;-63
2022/01/22 13:00:11;;;;;;;29.50;17.73;;;;;;;5.93;63.60;99199.63;4998139;28;20033;-63
2022/01/22 13:02:47;;;;;;;32.42;19.25;;;;;;;5.92;61.88;99194.56;4988659;28;20060;-63
2022/01/22 13:05:14;;;;;;;30.75;17.05;;;;;;;5.82;60.18;99186.56;4979744;28;20029;-63
2022/01/22 13:07:56;;;;;;;32.38;18.98;;;;;;;5.84;60.50;99189.06;5000269;28;20025;-64
2022/01/22 13:10:32;;;;;;;36.35;20.75;;;;;;;5.56;60.63;99147.00;5004823;28;20448;-63